sensor_id;sensor_type;location;lat;lon;timestamp;P1;durP1;ratioP1;P2;durP2;ratioP2
16403;SDS011;8311;50.158;8.642;2024-02-15T00:02:05;5.50;;;2.10;;
16403;SDS011;8311;50.158;8.642;2024-02-15T00:04:58;4.45;;;2.08;;
16403;SDS011;8311;50.158;8.642;2024-02-15T00:07:53;6.57;;;2.55;;
16403;SDS011;8311;50.158;8.642;2024-02-15T00:10:47;4.32;;;2.17;;
16403;SDS011;8311;50.158;8.642;2024-02-15T00:13:41;3.83;;;1.92;;
16403;SDS011;8311;50.158;8.642;2024-02-15T00:16:35;3.67;;;1.90;;
16403;SDS011;8311;50.158;8.642;2024-02-15T00:19:31;4.35;;;2.00;;
16403;SDS011;8311;50.158;8.642;2024-02-15T00:22:25;6.13;;;1.98;;
16403;SDS011;8311;50.158;8.642;2024-02-15T00:25:18;4.60;;;2.08;;
16403;SDS011;8311;50.158;8.642;2024-02-15T00:28:12;5.22;;;2.13;;
16403;SDS011;8311;50.158;8.642;2024-02-15T00:31:06;4.80;;;2.10;;
16403;SDS011;8311;50.158;8.642;2024-02-15T00:34:00;3.67;;;1.73;;
16403;SDS011;8311;50.158;8.642;2024-02-15T00:36:57;3.60;;;2.00;;
16403;SDS011;8311;50.158;8.642;2024-02-15T00:39:50;7.45;;;2.60;;
16403;SDS011;8311;50.158;8.642;2024-02-15T00:42:43;3.58;;;1.80;;
16403;SDS011;8311;50.158;8.642;2024-02-15T00:45:37;3.70;;;1.77;;
16403;SDS011;8311;50.158;8.642;2024-02-15T00:48:33;6.70;;;2.20;;
16403;SDS011;8311;50.158;8.642;2024-02-15T00:51:27;4.45;;;1.85;;
16403;SDS011;8311;50.158;8.642;2024-02-15T00:54:24;6.40;;;2.00;;
16403;SDS011;8311;50.158;8.642;2024-02-15T00:57:17;4.38;;;1.77;;
16403;SDS011;8311;50.158;8.642;2024-02-15T01:00:11;4.97;;;1.88;;
16403;SDS011;8311;50.158;8.642;2024-02-15T01:03:05;4.53;;;1.77;;
16403;SDS011;8311;50.158;8.642;2024-02-15T01:06:00;5.20;;;1.80;;
16403;SDS011;8311;50.158;8.642;2024-02-15T01:08:54;6.40;;;1.90;;
16403;SDS011;8311;50.158;8.642;2024-02-15T01:11:49;5.05;;;1.80;;
16403;SDS011;8311;50.158;8.642;2024-02-15T01:14:43;3.95;;;2.05;;
16403;SDS011;8311;50.158;8.642;2024-02-15T01:17:36;4.85;;;1.90;;
16403;SDS011;8311;50.158;8.642;2024-02-15T01:20:30;3.65;;;1.90;;
16403;SDS011;8311;50.158;8.642;2024-02-15T01:23:24;3.22;;;1.67;;
16403;SDS011;8311;50.158;8.642;2024-02-15T01:26:18;2.95;;;1.70;;
16403;SDS011;8311;50.158;8.642;2024-02-15T01:29:13;4.97;;;1.73;;
16403;SDS011;8311;50.158;8.642;2024-02-15T01:32:08;3.33;;;1.42;;
16403;SDS011;8311;50.158;8.642;2024-02-15T01:35:01;4.22;;;1.63;;
16403;SDS011;8311;50.158;8.642;2024-02-15T01:37:56;5.03;;;1.63;;
16403;SDS011;8311;50.158;8.642;2024-02-15T01:40:49;7.05;;;1.90;;
16403;SDS011;8311;50.158;8.642;2024-02-15T01:43:43;6.55;;;2.17;;
16403;SDS011;8311;50.158;8.642;2024-02-15T01:46:37;2.50;;;1.55;;
16403;SDS011;8311;50.158;8.642;2024-02-15T01:49:30;4.57;;;1.75;;
16403;SDS011;8311;50.158;8.642;2024-02-15T01:52:23;4.30;;;2.08;;
16403;SDS011;8311;50.158;8.642;2024-02-15T01:55:17;3.72;;;1.80;;
16403;SDS011;8311;50.158;8.642;2024-02-15T01:58:11;3.20;;;1.70;;
16403;SDS011;8311;50.158;8.642;2024-02-15T02:01:08;1.63;;;1.20;;
16403;SDS011;8311;50.158;8.642;2024-02-15T02:04:03;3.97;;;1.80;;
16403;SDS011;8311;50.158;8.642;2024-02-15T02:06:57;3.67;;;1.45;;
16403;SDS011;8311;50.158;8.642;2024-02-15T02:09:51;3.38;;;1.60;;
16403;SDS011;8311;50.158;8.642;2024-02-15T02:12:44;4.28;;;1.52;;
16403;SDS011;8311;50.158;8.642;2024-02-15T02:15:37;3.15;;;1.63;;
16403;SDS011;8311;50.158;8.642;2024-02-15T02:18:32;3.67;;;1.60;;
16403;SDS011;8311;50.158;8.642;2024-02-15T02:21:28;5.13;;;1.67;;
16403;SDS011;8311;50.158;8.642;2024-02-15T02:24:22;4.00;;;1.60;;
16403;SDS011;8311;50.158;8.642;2024-02-15T02:27:18;2.88;;;1.50;;
16403;SDS011;8311;50.158;8.642;2024-02-15T02:30:13;2.60;;;1.23;;
16403;SDS011;8311;50.158;8.642;2024-02-15T02:33:11;5.15;;;1.67;;
16403;SDS011;8311;50.158;8.642;2024-02-15T02:36:11;4.15;;;1.67;;
16403;SDS011;8311;50.158;8.642;2024-02-15T02:39:04;3.95;;;1.63;;
16403;SDS011;8311;50.158;8.642;2024-02-15T02:41:58;4.05;;;1.80;;
16403;SDS011;8311;50.158;8.642;2024-02-15T02:44:52;2.75;;;1.33;;
16403;SDS011;8311;50.158;8.642;2024-02-15T02:47:45;3.45;;;1.40;;
16403;SDS011;8311;50.158;8.642;2024-02-15T02:50:43;3.05;;;1.35;;
16403;SDS011;8311;50.158;8.642;2024-02-15T02:53:38;3.55;;;1.52;;
16403;SDS011;8311;50.158;8.642;2024-02-15T02:56:31;3.75;;;1.40;;
16403;SDS011;8311;50.158;8.642;2024-02-15T02:59:25;2.63;;;1.27;;
16403;SDS011;8311;50.158;8.642;2024-02-15T03:02:20;3.53;;;1.55;;
16403;SDS011;8311;50.158;8.642;2024-02-15T03:05:14;3.40;;;1.63;;
16403;SDS011;8311;50.158;8.642;2024-02-15T03:08:08;2.72;;;1.52;;
16403;SDS011;8311;50.158;8.642;2024-02-15T03:11:01;2.38;;;1.50;;
16403;SDS011;8311;50.158;8.642;2024-02-15T03:13:54;3.33;;;1.25;;
16403;SDS011;8311;50.158;8.642;2024-02-15T03:16:50;3.75;;;1.77;;
16403;SDS011;8311;50.158;8.642;2024-02-15T03:19:47;3.85;;;1.50;;
16403;SDS011;8311;50.158;8.642;2024-02-15T03:22:40;2.47;;;1.50;;
16403;SDS011;8311;50.158;8.642;2024-02-15T03:25:34;2.65;;;1.45;;
16403;SDS011;8311;50.158;8.642;2024-02-15T03:28:28;1.77;;;1.30;;
16403;SDS011;8311;50.158;8.642;2024-02-15T03:31:22;2.55;;;1.30;;
16403;SDS011;8311;50.158;8.642;2024-02-15T03:34:15;3.78;;;1.25;;
16403;SDS011;8311;50.158;8.642;2024-02-15T03:37:11;3.17;;;1.60;;
16403;SDS011;8311;50.158;8.642;2024-02-15T03:40:03;2.67;;;1.50;;
16403;SDS011;8311;50.158;8.642;2024-02-15T03:42:57;3.95;;;1.50;;
16403;SDS011;8311;50.158;8.642;2024-02-15T03:45:50;2.92;;;1.40;;
16403;SDS011;8311;50.158;8.642;2024-02-15T03:48:43;2.13;;;1.05;;
16403;SDS011;8311;50.158;8.642;2024-02-15T03:51:37;2.67;;;1.33;;
16403;SDS011;8311;50.158;8.642;2024-02-15T03:54:32;3.00;;;1.48;;
16403;SDS011;8311;50.158;8.642;2024-02-15T03:57:25;2.60;;;1.23;;
16403;SDS011;8311;50.158;8.642;2024-02-15T04:00:19;2.17;;;1.30;;
16403;SDS011;8311;50.158;8.642;2024-02-15T04:03:13;1.95;;;1.02;;
16403;SDS011;8311;50.158;8.642;2024-02-15T04:06:06;3.20;;;1.40;;
16403;SDS011;8311;50.158;8.642;2024-02-15T04:09:00;3.03;;;1.40;;
16403;SDS011;8311;50.158;8.642;2024-02-15T04:11:56;2.65;;;1.27;;
16403;SDS011;8311;50.158;8.642;2024-02-15T04:14:49;2.63;;;1.55;;
16403;SDS011;8311;50.158;8.642;2024-02-15T04:17:44;2.72;;;1.40;;
16403;SDS011;8311;50.158;8.642;2024-02-15T04:20:38;2.42;;;1.20;;
16403;SDS011;8311;50.158;8.642;2024-02-15T04:23:36;2.83;;;1.40;;
16403;SDS011;8311;50.158;8.642;2024-02-15T04:26:29;4.30;;;1.90;;
16403;SDS011;8311;50.158;8.642;2024-02-15T04:29:25;2.83;;;1.13;;
16403;SDS011;8311;50.158;8.642;2024-02-15T04:32:18;2.95;;;1.25;;
16403;SDS011;8311;50.158;8.642;2024-02-15T04:35:11;3.08;;;1.50;;
16403;SDS011;8311;50.158;8.642;2024-02-15T04:38:05;2.67;;;1.38;;
16403;SDS011;8311;50.158;8.642;2024-02-15T04:41:00;3.13;;;1.55;;
16403;SDS011;8311;50.158;8.642;2024-02-15T04:43:56;3.90;;;1.67;;
16403;SDS011;8311;50.158;8.642;2024-02-15T04:46:49;11.40;;;1.55;;
16403;SDS011;8311;50.158;8.642;2024-02-15T04:49:45;4.97;;;1.50;;
16403;SDS011;8311;50.158;8.642;2024-02-15T04:52:38;4.43;;;1.60;;
16403;SDS011;8311;50.158;8.642;2024-02-15T04:55:37;4.30;;;1.65;;
16403;SDS011;8311;50.158;8.642;2024-02-15T04:58:30;4.80;;;1.48;;
16403;SDS011;8311;50.158;8.642;2024-02-15T05:01:31;3.85;;;1.40;;
16403;SDS011;8311;50.158;8.642;2024-02-15T05:04:25;5.43;;;1.52;;
16403;SDS011;8311;50.158;8.642;2024-02-15T05:07:19;3.80;;;1.60;;
16403;SDS011;8311;50.158;8.642;2024-02-15T05:10:13;5.18;;;1.45;;
16403;SDS011;8311;50.158;8.642;2024-02-15T05:13:08;2.53;;;1.45;;
16403;SDS011;8311;50.158;8.642;2024-02-15T05:16:07;4.43;;;1.70;;
16403;SDS011;8311;50.158;8.642;2024-02-15T05:19:02;2.72;;;1.50;;
16403;SDS011;8311;50.158;8.642;2024-02-15T05:21:58;4.22;;;1.40;;
16403;SDS011;8311;50.158;8.642;2024-02-15T05:24:52;9.40;;;1.98;;
16403;SDS011;8311;50.158;8.642;2024-02-15T05:27:45;4.47;;;1.83;;
16403;SDS011;8311;50.158;8.642;2024-02-15T05:30:38;4.18;;;1.40;;
16403;SDS011;8311;50.158;8.642;2024-02-15T05:33:31;7.50;;;1.70;;
16403;SDS011;8311;50.158;8.642;2024-02-15T05:36:24;4.38;;;1.50;;
16403;SDS011;8311;50.158;8.642;2024-02-15T05:39:18;3.03;;;1.27;;
16403;SDS011;8311;50.158;8.642;2024-02-15T05:42:13;4.88;;;1.95;;
16403;SDS011;8311;50.158;8.642;2024-02-15T05:48:26;3.38;;;1.50;;
16403;SDS011;8311;50.158;8.642;2024-02-15T05:51:21;4.53;;;1.60;;
16403;SDS011;8311;50.158;8.642;2024-02-15T05:54:16;4.43;;;1.70;;
16403;SDS011;8311;50.158;8.642;2024-02-15T05:57:11;4.72;;;1.85;;
16403;SDS011;8311;50.158;8.642;2024-02-15T06:00:05;6.15;;;1.63;;
16403;SDS011;8311;50.158;8.642;2024-02-15T06:03:12;5.03;;;1.80;;
16403;SDS011;8311;50.158;8.642;2024-02-15T06:06:06;9.07;;;1.73;;
16403;SDS011;8311;50.158;8.642;2024-02-15T06:09:00;6.68;;;2.10;;
16403;SDS011;8311;50.158;8.642;2024-02-15T06:11:57;5.22;;;2.03;;
16403;SDS011;8311;50.158;8.642;2024-02-15T06:14:53;4.15;;;1.85;;
16403;SDS011;8311;50.158;8.642;2024-02-15T06:17:46;8.93;;;1.85;;
16403;SDS011;8311;50.158;8.642;2024-02-15T06:20:40;4.93;;;1.65;;
16403;SDS011;8311;50.158;8.642;2024-02-15T06:23:34;9.13;;;1.80;;
16403;SDS011;8311;50.158;8.642;2024-02-15T06:26:28;7.70;;;1.95;;
16403;SDS011;8311;50.158;8.642;2024-02-15T06:29:22;4.53;;;1.80;;
16403;SDS011;8311;50.158;8.642;2024-02-15T06:32:34;6.10;;;2.10;;
16403;SDS011;8311;50.158;8.642;2024-02-15T06:35:44;4.35;;;1.75;;
16403;SDS011;8311;50.158;8.642;2024-02-15T06:38:54;5.35;;;1.65;;
16403;SDS011;8311;50.158;8.642;2024-02-15T06:42:05;4.35;;;1.70;;
16403;SDS011;8311;50.158;8.642;2024-02-15T06:44:58;8.98;;;2.35;;
16403;SDS011;8311;50.158;8.642;2024-02-15T06:47:53;5.07;;;1.98;;
16403;SDS011;8311;50.158;8.642;2024-02-15T06:50:47;7.22;;;2.00;;
16403;SDS011;8311;50.158;8.642;2024-02-15T06:53:40;6.60;;;1.98;;
16403;SDS011;8311;50.158;8.642;2024-02-15T06:56:35;5.75;;;1.50;;
16403;SDS011;8311;50.158;8.642;2024-02-15T06:59:29;5.20;;;1.77;;
16403;SDS011;8311;50.158;8.642;2024-02-15T07:02:23;3.65;;;1.45;;
16403;SDS011;8311;50.158;8.642;2024-02-15T07:05:18;3.47;;;1.50;;
16403;SDS011;8311;50.158;8.642;2024-02-15T07:08:12;8.90;;;2.17;;
16403;SDS011;8311;50.158;8.642;2024-02-15T07:11:06;4.57;;;1.30;;
16403;SDS011;8311;50.158;8.642;2024-02-15T07:14:00;2.80;;;1.27;;
16403;SDS011;8311;50.158;8.642;2024-02-15T07:16:54;3.95;;;1.48;;
16403;SDS011;8311;50.158;8.642;2024-02-15T07:19:50;2.63;;;1.33;;
16403;SDS011;8311;50.158;8.642;2024-02-15T07:22:44;2.22;;;1.30;;
16403;SDS011;8311;50.158;8.642;2024-02-15T07:25:38;4.40;;;1.65;;
16403;SDS011;8311;50.158;8.642;2024-02-15T07:28:31;2.65;;;1.30;;
16403;SDS011;8311;50.158;8.642;2024-02-15T07:31:27;2.10;;;1.40;;
16403;SDS011;8311;50.158;8.642;2024-02-15T07:34:21;2.08;;;1.30;;
16403;SDS011;8311;50.158;8.642;2024-02-15T07:37:15;3.25;;;1.27;;
16403;SDS011;8311;50.158;8.642;2024-02-15T07:40:10;2.60;;;1.23;;
16403;SDS011;8311;50.158;8.642;2024-02-15T07:43:04;4.63;;;1.50;;
16403;SDS011;8311;50.158;8.642;2024-02-15T07:45:57;4.88;;;1.40;;
16403;SDS011;8311;50.158;8.642;2024-02-15T07:48:54;4.15;;;1.20;;
16403;SDS011;8311;50.158;8.642;2024-02-15T07:51:47;3.28;;;1.45;;
16403;SDS011;8311;50.158;8.642;2024-02-15T07:54:48;3.53;;;1.50;;
16403;SDS011;8311;50.158;8.642;2024-02-15T07:57:42;2.38;;;1.35;;
16403;SDS011;8311;50.158;8.642;2024-02-15T08:00:35;4.43;;;1.80;;
16403;SDS011;8311;50.158;8.642;2024-02-15T08:03:30;4.78;;;1.75;;
16403;SDS011;8311;50.158;8.642;2024-02-15T08:06:23;5.60;;;1.55;;
16403;SDS011;8311;50.158;8.642;2024-02-15T08:09:20;3.03;;;1.42;;
16403;SDS011;8311;50.158;8.642;2024-02-15T08:12:16;4.45;;;1.58;;
16403;SDS011;8311;50.158;8.642;2024-02-15T08:15:12;6.20;;;2.10;;
16403;SDS011;8311;50.158;8.642;2024-02-15T08:18:05;3.10;;;1.48;;
16403;SDS011;8311;50.158;8.642;2024-02-15T08:21:01;5.13;;;1.98;;
16403;SDS011;8311;50.158;8.642;2024-02-15T08:23:56;3.25;;;1.45;;
16403;SDS011;8311;50.158;8.642;2024-02-15T08:26:49;3.42;;;1.70;;
16403;SDS011;8311;50.158;8.642;2024-02-15T08:29:43;3.88;;;1.75;;
16403;SDS011;8311;50.158;8.642;2024-02-15T08:32:39;3.03;;;1.25;;
16403;SDS011;8311;50.158;8.642;2024-02-15T08:35:33;5.85;;;1.70;;
16403;SDS011;8311;50.158;8.642;2024-02-15T08:38:29;4.18;;;1.40;;
16403;SDS011;8311;50.158;8.642;2024-02-15T08:41:21;7.65;;;1.77;;
16403;SDS011;8311;50.158;8.642;2024-02-15T08:44:18;2.90;;;1.40;;
16403;SDS011;8311;50.158;8.642;2024-02-15T08:47:12;4.60;;;1.80;;
16403;SDS011;8311;50.158;8.642;2024-02-15T08:50:09;33.20;;;5.03;;
16403;SDS011;8311;50.158;8.642;2024-02-15T08:53:03;17.77;;;3.95;;
16403;SDS011;8311;50.158;8.642;2024-02-15T08:55:59;6.50;;;3.40;;
16403;SDS011;8311;50.158;8.642;2024-02-15T08:58:52;6.47;;;3.50;;
16403;SDS011;8311;50.158;8.642;2024-02-15T09:01:46;7.57;;;3.60;;
16403;SDS011;8311;50.158;8.642;2024-02-15T09:04:38;7.15;;;3.72;;
16403;SDS011;8311;50.158;8.642;2024-02-15T09:07:37;11.32;;;4.15;;
16403;SDS011;8311;50.158;8.642;2024-02-15T09:10:30;15.60;;;3.63;;
16403;SDS011;8311;50.158;8.642;2024-02-15T09:13:25;7.30;;;3.67;;
16403;SDS011;8311;50.158;8.642;2024-02-15T09:16:17;7.75;;;3.28;;
16403;SDS011;8311;50.158;8.642;2024-02-15T09:19:12;8.50;;;3.28;;
16403;SDS011;8311;50.158;8.642;2024-02-15T09:22:05;8.18;;;3.40;;
16403;SDS011;8311;50.158;8.642;2024-02-15T09:25:00;11.25;;;3.55;;
16403;SDS011;8311;50.158;8.642;2024-02-15T09:27:52;10.60;;;2.88;;
16403;SDS011;8311;50.158;8.642;2024-02-15T09:30:46;11.30;;;3.38;;
16403;SDS011;8311;50.158;8.642;2024-02-15T09:33:39;9.98;;;3.17;;
16403;SDS011;8311;50.158;8.642;2024-02-15T09:36:34;12.30;;;3.72;;
16403;SDS011;8311;50.158;8.642;2024-02-15T09:39:29;12.07;;;3.10;;
16403;SDS011;8311;50.158;8.642;2024-02-15T09:42:24;6.88;;;2.85;;
16403;SDS011;8311;50.158;8.642;2024-02-15T09:45:17;11.25;;;2.92;;
16403;SDS011;8311;50.158;8.642;2024-02-15T09:48:13;13.20;;;2.85;;
16403;SDS011;8311;50.158;8.642;2024-02-15T09:51:10;9.95;;;2.80;;
16403;SDS011;8311;50.158;8.642;2024-02-15T09:54:05;12.48;;;2.83;;
16403;SDS011;8311;50.158;8.642;2024-02-15T09:57:01;6.13;;;2.90;;
16403;SDS011;8311;50.158;8.642;2024-02-15T09:59:57;7.90;;;2.97;;
16403;SDS011;8311;50.158;8.642;2024-02-15T10:02:51;9.48;;;3.33;;
16403;SDS011;8311;50.158;8.642;2024-02-15T10:05:48;8.88;;;2.65;;
16403;SDS011;8311;50.158;8.642;2024-02-15T10:08:42;8.18;;;2.55;;
16403;SDS011;8311;50.158;8.642;2024-02-15T10:11:36;11.13;;;2.75;;
16403;SDS011;8311;50.158;8.642;2024-02-15T10:14:29;7.22;;;2.55;;
16403;SDS011;8311;50.158;8.642;2024-02-15T10:17:25;12.43;;;2.63;;
16403;SDS011;8311;50.158;8.642;2024-02-15T10:20:19;9.32;;;2.80;;
16403;SDS011;8311;50.158;8.642;2024-02-15T10:23:14;10.30;;;2.75;;
16403;SDS011;8311;50.158;8.642;2024-02-15T10:26:19;13.10;;;3.20;;
16403;SDS011;8311;50.158;8.642;2024-02-15T10:29:18;9.52;;;3.25;;
16403;SDS011;8311;50.158;8.642;2024-02-15T10:32:12;10.43;;;2.75;;
16403;SDS011;8311;50.158;8.642;2024-02-15T10:35:07;9.10;;;3.13;;
16403;SDS011;8311;50.158;8.642;2024-02-15T10:38:07;8.65;;;2.63;;
16403;SDS011;8311;50.158;8.642;2024-02-15T10:41:02;12.15;;;3.05;;
16403;SDS011;8311;50.158;8.642;2024-02-15T10:43:56;10.73;;;2.92;;
16403;SDS011;8311;50.158;8.642;2024-02-15T10:46:50;10.50;;;2.80;;
16403;SDS011;8311;50.158;8.642;2024-02-15T10:49:46;9.25;;;2.88;;
16403;SDS011;8311;50.158;8.642;2024-02-15T10:52:43;11.18;;;2.75;;
16403;SDS011;8311;50.158;8.642;2024-02-15T10:55:46;10.30;;;2.63;;
16403;SDS011;8311;50.158;8.642;2024-02-15T10:58:51;12.63;;;2.92;;
16403;SDS011;8311;50.158;8.642;2024-02-15T11:01:53;9.43;;;2.75;;
16403;SDS011;8311;50.158;8.642;2024-02-15T11:04:53;9.55;;;2.67;;
16403;SDS011;8311;50.158;8.642;2024-02-15T11:07:50;10.95;;;2.60;;
16403;SDS011;8311;50.158;8.642;2024-02-15T11:10:46;6.68;;;2.45;;
16403;SDS011;8311;50.158;8.642;2024-02-15T11:13:41;11.43;;;3.35;;
16403;SDS011;8311;50.158;8.642;2024-02-15T11:16:41;15.13;;;2.90;;
16403;SDS011;8311;50.158;8.642;2024-02-15T11:19:40;9.30;;;2.83;;
16403;SDS011;8311;50.158;8.642;2024-02-15T11:22:37;11.70;;;3.20;;
16403;SDS011;8311;50.158;8.642;2024-02-15T11:25:32;8.25;;;2.70;;
16403;SDS011;8311;50.158;8.642;2024-02-15T11:28:34;8.23;;;2.70;;
16403;SDS011;8311;50.158;8.642;2024-02-15T11:34:46;10.52;;;2.75;;
16403;SDS011;8311;50.158;8.642;2024-02-15T11:41:05;14.35;;;3.25;;
16403;SDS011;8311;50.158;8.642;2024-02-15T11:44:01;12.63;;;3.00;;
16403;SDS011;8311;50.158;8.642;2024-02-15T11:46:54;9.43;;;2.97;;
16403;SDS011;8311;50.158;8.642;2024-02-15T11:49:53;18.55;;;3.08;;
16403;SDS011;8311;50.158;8.642;2024-02-15T11:52:47;8.90;;;2.88;;
16403;SDS011;8311;50.158;8.642;2024-02-15T11:55:42;15.25;;;3.03;;
16403;SDS011;8311;50.158;8.642;2024-02-15T11:58:37;9.00;;;2.85;;
16403;SDS011;8311;50.158;8.642;2024-02-15T12:01:44;12.55;;;2.78;;
16403;SDS011;8311;50.158;8.642;2024-02-15T12:04:54;7.78;;;2.75;;
16403;SDS011;8311;50.158;8.642;2024-02-15T12:08:20;13.43;;;2.97;;
16403;SDS011;8311;50.158;8.642;2024-02-15T12:11:31;12.60;;;2.92;;
16403;SDS011;8311;50.158;8.642;2024-02-15T12:14:45;9.15;;;2.50;;
16403;SDS011;8311;50.158;8.642;2024-02-15T12:17:55;9.35;;;2.67;;
16403;SDS011;8311;50.158;8.642;2024-02-15T12:21:25;9.18;;;2.50;;
16403;SDS011;8311;50.158;8.642;2024-02-15T12:24:20;5.97;;;2.20;;
16403;SDS011;8311;50.158;8.642;2024-02-15T12:27:18;6.20;;;2.58;;
16403;SDS011;8311;50.158;8.642;2024-02-15T12:30:14;7.35;;;2.67;;
16403;SDS011;8311;50.158;8.642;2024-02-15T12:33:12;8.23;;;2.38;;
16403;SDS011;8311;50.158;8.642;2024-02-15T12:36:11;13.25;;;2.92;;
16403;SDS011;8311;50.158;8.642;2024-02-15T12:39:05;6.82;;;2.65;;
16403;SDS011;8311;50.158;8.642;2024-02-15T12:42:04;9.30;;;2.55;;
16403;SDS011;8311;50.158;8.642;2024-02-15T12:45:01;3.90;;;1.83;;
16403;SDS011;8311;50.158;8.642;2024-02-15T12:47:56;5.25;;;2.45;;
16403;SDS011;8311;50.158;8.642;2024-02-15T12:50:52;6.18;;;2.20;;
16403;SDS011;8311;50.158;8.642;2024-02-15T12:53:47;6.93;;;2.40;;
16403;SDS011;8311;50.158;8.642;2024-02-15T12:56:40;6.72;;;1.88;;
16403;SDS011;8311;50.158;8.642;2024-02-15T12:59:32;4.97;;;2.60;;
16403;SDS011;8311;50.158;8.642;2024-02-15T13:02:26;5.35;;;2.47;;
16403;SDS011;8311;50.158;8.642;2024-02-15T13:05:20;5.75;;;2.05;;
16403;SDS011;8311;50.158;8.642;2024-02-15T13:08:15;5.88;;;2.00;;
16403;SDS011;8311;50.158;8.642;2024-02-15T13:11:10;5.78;;;2.25;;
16403;SDS011;8311;50.158;8.642;2024-02-15T13:14:05;7.72;;;2.60;;
16403;SDS011;8311;50.158;8.642;2024-02-15T13:16:58;6.65;;;2.75;;
16403;SDS011;8311;50.158;8.642;2024-02-15T13:19:54;6.13;;;2.30;;
16403;SDS011;8311;50.158;8.642;2024-02-15T13:22:55;4.65;;;1.90;;
16403;SDS011;8311;50.158;8.642;2024-02-15T13:25:53;6.93;;;2.40;;
16403;SDS011;8311;50.158;8.642;2024-02-15T13:28:48;6.65;;;2.40;;
16403;SDS011;8311;50.158;8.642;2024-02-15T13:31:41;5.30;;;2.60;;
16403;SDS011;8311;50.158;8.642;2024-02-15T13:34:35;5.60;;;2.20;;
16403;SDS011;8311;50.158;8.642;2024-02-15T13:37:28;3.15;;;1.65;;
16403;SDS011;8311;50.158;8.642;2024-02-15T13:40:23;6.07;;;2.58;;
16403;SDS011;8311;50.158;8.642;2024-02-15T13:43:19;8.18;;;2.80;;
16403;SDS011;8311;50.158;8.642;2024-02-15T13:46:12;3.83;;;2.05;;
16403;SDS011;8311;50.158;8.642;2024-02-15T13:49:05;4.28;;;2.00;;
16403;SDS011;8311;50.158;8.642;2024-02-15T13:52:09;11.27;;;2.25;;
16403;SDS011;8311;50.158;8.642;2024-02-15T13:55:05;9.25;;;2.55;;
16403;SDS011;8311;50.158;8.642;2024-02-15T13:58:01;6.65;;;2.42;;
16403;SDS011;8311;50.158;8.642;2024-02-15T14:00:56;10.20;;;1.92;;
16403;SDS011;8311;50.158;8.642;2024-02-15T14:03:52;5.82;;;2.22;;
16403;SDS011;8311;50.158;8.642;2024-02-15T14:06:47;3.90;;;1.80;;
16403;SDS011;8311;50.158;8.642;2024-02-15T14:09:40;7.40;;;2.30;;
16403;SDS011;8311;50.158;8.642;2024-02-15T14:12:34;5.85;;;2.50;;
16403;SDS011;8311;50.158;8.642;2024-02-15T14:15:29;4.72;;;2.05;;
16403;SDS011;8311;50.158;8.642;2024-02-15T14:18:29;5.93;;;2.20;;
16403;SDS011;8311;50.158;8.642;2024-02-15T14:21:22;5.35;;;2.25;;
16403;SDS011;8311;50.158;8.642;2024-02-15T14:24:17;4.97;;;2.33;;
16403;SDS011;8311;50.158;8.642;2024-02-15T14:27:13;3.85;;;1.98;;
16403;SDS011;8311;50.158;8.642;2024-02-15T14:30:08;5.30;;;2.17;;
16403;SDS011;8311;50.158;8.642;2024-02-15T14:33:21;4.18;;;1.83;;
16403;SDS011;8311;50.158;8.642;2024-02-15T14:36:23;4.65;;;1.75;;
16403;SDS011;8311;50.158;8.642;2024-02-15T14:39:18;5.32;;;2.20;;
16403;SDS011;8311;50.158;8.642;2024-02-15T14:42:10;4.35;;;1.80;;
16403;SDS011;8311;50.158;8.642;2024-02-15T14:45:07;5.43;;;1.90;;
16403;SDS011;8311;50.158;8.642;2024-02-15T14:48:01;5.72;;;1.92;;
16403;SDS011;8311;50.158;8.642;2024-02-15T14:50:56;5.40;;;1.85;;
16403;SDS011;8311;50.158;8.642;2024-02-15T14:53:50;6.32;;;1.92;;
16403;SDS011;8311;50.158;8.642;2024-02-15T14:56:44;8.93;;;2.30;;
16403;SDS011;8311;50.158;8.642;2024-02-15T14:59:37;4.60;;;2.00;;
16403;SDS011;8311;50.158;8.642;2024-02-15T15:02:32;4.80;;;1.63;;
16403;SDS011;8311;50.158;8.642;2024-02-15T15:05:26;7.05;;;2.10;;
16403;SDS011;8311;50.158;8.642;2024-02-15T15:08:39;5.32;;;2.30;;
16403;SDS011;8311;50.158;8.642;2024-02-15T15:11:50;7.32;;;1.80;;
16403;SDS011;8311;50.158;8.642;2024-02-15T15:15:02;6.88;;;2.20;;
16403;SDS011;8311;50.158;8.642;2024-02-15T15:17:57;8.43;;;2.20;;
16403;SDS011;8311;50.158;8.642;2024-02-15T15:20:51;4.18;;;1.52;;
16403;SDS011;8311;50.158;8.642;2024-02-15T15:23:46;3.53;;;1.88;;
16403;SDS011;8311;50.158;8.642;2024-02-15T15:26:40;3.67;;;1.83;;
16403;SDS011;8311;50.158;8.642;2024-02-15T15:29:33;6.43;;;1.98;;
16403;SDS011;8311;50.158;8.642;2024-02-15T15:32:28;5.68;;;1.90;;
16403;SDS011;8311;50.158;8.642;2024-02-15T15:35:22;3.75;;;1.35;;
16403;SDS011;8311;50.158;8.642;2024-02-15T15:38:21;6.07;;;2.05;;
16403;SDS011;8311;50.158;8.642;2024-02-15T15:41:15;4.30;;;1.88;;
16403;SDS011;8311;50.158;8.642;2024-02-15T15:44:08;8.70;;;2.15;;
16403;SDS011;8311;50.158;8.642;2024-02-15T15:47:02;5.30;;;1.70;;
16403;SDS011;8311;50.158;8.642;2024-02-15T15:49:57;6.00;;;2.05;;
16403;SDS011;8311;50.158;8.642;2024-02-15T15:52:50;5.55;;;2.35;;
16403;SDS011;8311;50.158;8.642;2024-02-15T15:55:48;7.10;;;1.85;;
16403;SDS011;8311;50.158;8.642;2024-02-15T15:58:42;5.18;;;2.17;;
16403;SDS011;8311;50.158;8.642;2024-02-15T16:01:46;4.35;;;1.85;;
16403;SDS011;8311;50.158;8.642;2024-02-15T16:04:42;6.85;;;2.17;;
16403;SDS011;8311;50.158;8.642;2024-02-15T16:07:37;12.05;;;2.65;;
16403;SDS011;8311;50.158;8.642;2024-02-15T16:10:32;8.95;;;2.78;;
16403;SDS011;8311;50.158;8.642;2024-02-15T16:13:27;8.55;;;2.30;;
16403;SDS011;8311;50.158;8.642;2024-02-15T16:16:21;6.05;;;2.20;;
16403;SDS011;8311;50.158;8.642;2024-02-15T16:19:17;6.10;;;2.30;;
16403;SDS011;8311;50.158;8.642;2024-02-15T16:22:09;8.20;;;2.22;;
16403;SDS011;8311;50.158;8.642;2024-02-15T16:25:08;8.95;;;2.92;;
16403;SDS011;8311;50.158;8.642;2024-02-15T16:28:02;5.53;;;1.70;;
16403;SDS011;8311;50.158;8.642;2024-02-15T16:30:59;5.00;;;2.25;;
16403;SDS011;8311;50.158;8.642;2024-02-15T16:33:54;5.45;;;2.30;;
16403;SDS011;8311;50.158;8.642;2024-02-15T16:36:48;7.32;;;1.95;;
16403;SDS011;8311;50.158;8.642;2024-02-15T16:39:41;8.15;;;2.33;;
16403;SDS011;8311;50.158;8.642;2024-02-15T16:42:35;8.98;;;1.83;;
16403;SDS011;8311;50.158;8.642;2024-02-15T16:45:29;3.72;;;1.90;;
16403;SDS011;8311;50.158;8.642;2024-02-15T16:48:25;7.88;;;2.13;;
16403;SDS011;8311;50.158;8.642;2024-02-15T16:51:20;4.10;;;2.22;;
16403;SDS011;8311;50.158;8.642;2024-02-15T16:54:16;4.72;;;2.10;;
16403;SDS011;8311;50.158;8.642;2024-02-15T16:57:09;5.30;;;2.10;;
16403;SDS011;8311;50.158;8.642;2024-02-15T17:00:07;6.05;;;2.00;;
16403;SDS011;8311;50.158;8.642;2024-02-15T17:03:04;5.68;;;2.10;;
16403;SDS011;8311;50.158;8.642;2024-02-15T17:05:58;6.43;;;2.30;;
16403;SDS011;8311;50.158;8.642;2024-02-15T17:08:54;5.70;;;2.10;;
16403;SDS011;8311;50.158;8.642;2024-02-15T17:11:48;3.47;;;1.75;;
16403;SDS011;8311;50.158;8.642;2024-02-15T17:14:41;5.25;;;1.95;;
16403;SDS011;8311;50.158;8.642;2024-02-15T17:17:35;5.57;;;1.83;;
16403;SDS011;8311;50.158;8.642;2024-02-15T17:20:29;4.75;;;2.05;;
16403;SDS011;8311;50.158;8.642;2024-02-15T17:23:22;6.78;;;1.85;;
16403;SDS011;8311;50.158;8.642;2024-02-15T17:26:17;6.53;;;2.17;;
16403;SDS011;8311;50.158;8.642;2024-02-15T17:29:10;4.82;;;1.77;;
16403;SDS011;8311;50.158;8.642;2024-02-15T17:32:05;5.97;;;2.28;;
16403;SDS011;8311;50.158;8.642;2024-02-15T17:34:59;6.22;;;1.67;;
16403;SDS011;8311;50.158;8.642;2024-02-15T17:37:55;3.25;;;1.73;;
16403;SDS011;8311;50.158;8.642;2024-02-15T17:40:48;4.95;;;1.90;;
16403;SDS011;8311;50.158;8.642;2024-02-15T17:43:42;4.47;;;2.05;;
16403;SDS011;8311;50.158;8.642;2024-02-15T17:46:35;7.78;;;2.40;;
16403;SDS011;8311;50.158;8.642;2024-02-15T17:49:29;6.50;;;2.08;;
16403;SDS011;8311;50.158;8.642;2024-02-15T17:52:22;4.13;;;2.33;;
16403;SDS011;8311;50.158;8.642;2024-02-15T17:55:16;6.32;;;2.22;;
16403;SDS011;8311;50.158;8.642;2024-02-15T17:58:10;10.52;;;2.60;;
16403;SDS011;8311;50.158;8.642;2024-02-15T18:01:05;14.95;;;5.10;;
16403;SDS011;8311;50.158;8.642;2024-02-15T18:03:59;17.05;;;7.22;;